Time;durP1;ratioP1;P1;durP2;ratioP2;P2;SDS_P1;SDS_P2;PMS_P1;PMS_P2;Temp;Humidity;BMP_temperature;BMP_pressure;BME280_temperature;BME280_humidity;BME280_pressure;Samples;Min_cycle;Max_cycle;Signal;HPM_P1;HPM_P2
2022/06/24 00:01:13;;;;;;;1.95;1.15;;;21.00;93.50;;;;;;5099805;27;20110;-89
2022/06/24 00:03:39;;;;;;;4.22;2.10;;;21.00;93.50;;;;;;5114262;27;20031;-89
2022/06/24 00:06:16;;;;;;;4.32;1.50;;;20.90;93.40;;;;;;5131462;27;20556;-88
2022/06/24 00:08:56;;;;;;;3.00;1.70;;;20.90;93.90;;;;;;5132155;27;20107;-88
2022/06/24 00:11:31;;;;;;;4.03;1.77;;;20.80;93.90;;;;;;5113300;27;20051;-88
2022/06/24 00:14:08;;;;;;;3.00;1.30;;;20.70;94.20;;;;;;5113208;27;20039;-89
2022/06/24 00:16:57;;;;;;;3.13;1.50;;;20.70;94.50;;;;;;5113290;27;20039;-88
2022/06/24 00:19:25;;;;;;;2.85;1.38;;;20.70;94.70;;;;;;5113416;27;20078;-88
2022/06/24 00:22:17;;;;;;;2.00;1.20;;;20.70;94.90;;;;;;5113739;27;20087;-89
2022/06/24 00:24:42;;;;;;;2.08;1.45;;;20.60;95.50;;;;;;5108077;27;20494;-88
2022/06/24 00:27:23;;;;;;;1.52;1.30;;;20.50;95.80;;;;;;5113896;27;20047;-88
2022/06/24 00:29:50;;;;;;;1.42;1.13;;;20.50;96.40;;;;;;5129294;27;20119;-88
2022/06/24 00:32:28;;;;;;;2.47;1.42;;;20.40;96.60;;;;;;5130367;27;20027;-89
2022/06/24 00:35:05;;;;;;;2.88;1.40;;;20.30;97.10;;;;;;5130580;27;20475;-88
2022/06/24 00:37:32;;;;;;;3.42;1.20;;;20.20;97.70;;;;;;5129434;27;20089;-88
2022/06/24 00:40:10;;;;;;;1.63;1.10;;;20.20;98.10;;;;;;5113181;27;20037;-89
2022/06/24 00:42:42;;;;;;;3.90;1.15;;;20.10;98.60;;;;;;5129448;27;20130;-88
2022/06/24 00:45:15;;;;;;;2.65;1.20;;;20.00;98.90;;;;;;5112377;27;20542;-89
2022/06/24 00:47:42;;;;;;;1.70;0.95;;;19.90;99.20;;;;;;5112684;27;20571;-88
2022/06/24 00:50:20;;;;;;;10.50;1.65;;;19.80;99.60;;;;;;5129812;27;20107;-88
2022/06/24 00:52:47;;;;;;;2.15;1.23;;;19.80;99.90;;;;;;5113169;27;20050;-88
2022/06/24 00:55:27;;;;;;;2.55;1.05;;;19.70;99.90;;;;;;5095704;27;20436;-88
2022/06/24 00:57:53;;;;;;;6.60;1.33;;;19.60;99.90;;;;;;5112962;27;20453;-88
2022/06/24 01:00:21;;;;;;;2.97;1.55;;;19.60;99.90;;;;;;5112463;27;20036;-89
2022/06/24 01:02:48;;;;;;;3.35;1.77;;;19.50;99.90;;;;;;5129000;27;20080;-87
2022/06/24 01:05:16;;;;;;;4.82;1.58;;;19.40;99.90;;;;;;5095670;27;20394;-88
2022/06/24 01:07:42;;;;;;;2.53;1.55;;;19.40;99.90;;;;;;5128354;27;20497;-88
2022/06/24 01:10:09;;;;;;;2.03;1.13;;;19.40;99.90;;;;;;5112196;27;20054;-88
2022/06/24 01:12:36;;;;;;;3.75;1.50;;;19.30;99.90;;;;;;5111314;27;20077;-88
2022/06/24 01:15:03;;;;;;;3.17;1.38;;;19.30;99.90;;;;;;5128784;27;20055;-88
2022/06/24 01:17:29;;;;;;;1.92;1.33;;;19.20;99.90;;;;;;5111887;27;20042;-87
2022/06/24 01:19:55;;;;;;;4.03;1.38;;;19.20;99.90;;;;;;5111720;27;20371;-88
2022/06/24 01:22:22;;;;;;;2.92;1.50;;;19.10;99.90;;;;;;5112138;27;20142;-88
2022/06/24 01:24:48;;;;;;;3.10;1.40;;;19.00;99.90;;;;;;5128920;27;20371;-88
2022/06/24 01:27:14;;;;;;;2.95;1.50;;;19.00;99.90;;;;;;5115745;27;20060;-88
2022/06/24 01:29:39;;;;;;;3.95;1.30;;;18.90;99.90;;;;;;5114004;27;20096;-88
2022/06/24 01:32:06;;;;;;;4.55;1.65;;;18.90;99.90;;;;;;5129614;27;20475;-88
2022/06/24 01:34:31;;;;;;;3.05;1.50;;;18.80;99.90;;;;;;5112054;27;20039;-88
2022/06/24 01:36:57;;;;;;;3.55;1.50;;;18.80;99.90;;;;;;5128706;27;20058;-88
2022/06/24 01:39:23;;;;;;;2.33;1.50;;;18.70;99.90;;;;;;5129300;27;20115;-88
2022/06/24 01:41:52;;;;;;;3.33;1.65;;;18.70;99.90;;;;;;5128593;27;20054;-89
2022/06/24 01:44:19;;;;;;;6.22;2.15;;;18.70;99.90;;;;;;5128766;27;20043;-89
2022/06/24 01:46:45;;;;;;;4.18;1.65;;;18.60;99.90;;;;;;5111720;27;20043;-88
2022/06/24 01:49:11;;;;;;;2.08;1.40;;;18.90;99.90;;;;;;5131049;27;20043;-88
2022/06/24 01:51:41;;;;;;;3.15;1.65;;;18.50;99.90;;;;;;5140370;27;20058;-88
2022/06/24 01:54:06;;;;;;;3.03;1.70;;;18.50;99.90;;;;;;5132244;27;20051;-89
2022/06/24 01:56:32;;;;;;;3.78;1.70;;;18.40;99.90;;;;;;5112632;27;20118;-88
2022/06/24 01:58:58;;;;;;;2.22;1.73;;;18.40;99.90;;;;;;5127971;27;20043;-88
2022/06/24 02:01:24;;;;;;;2.78;2.17;;;18.30;99.90;;;;;;5128274;27;20148;-89
2022/06/24 02:03:50;;;;;;;3.05;1.75;;;18.30;99.90;;;;;;5111286;27;20172;-88
2022/06/24 02:06:20;;;;;;;3.45;1.90;;;18.30;99.90;;;;;;5111696;27;20095;-88
2022/06/24 02:08:45;;;;;;;2.50;2.15;;;18.20;99.90;;;;;;5128045;27;20084;-88
2022/06/24 02:14:00;;;;;;;3.22;2.05;;;18.20;99.90;;;;;;5128616;27;20467;-88
2022/06/24 02:16:26;;;;;;;3.40;1.92;;;18.20;99.90;;;;;;5111091;27;20047;-89
2022/06/24 02:18:54;;;;;;;2.85;1.65;;;18.20;99.90;;;;;;5111629;28;20153;-89
2022/06/24 02:21:23;;;;;;;6.32;1.90;;;18.20;99.90;;;;;;5110833;28;20046;-88
2022/06/24 02:23:49;;;;;;;7.05;2.28;;;19.20;99.90;;;;;;5127826;27;20435;-88
2022/06/24 02:26:15;;;;;;;5.82;2.10;;;18.10;99.90;;;;;;5111658;28;20035;-88
2022/06/24 02:28:41;;;;;;;2.70;1.77;;;18.00;99.90;;;;;;5128781;28;20096;-87
2022/06/24 02:31:07;;;;;;;3.08;2.03;;;18.00;99.90;;;;;;5111171;28;20043;-88
2022/06/24 02:33:33;;;;;;;2.40;1.77;;;18.00;99.90;;;;;;5111549;28;20035;-88
2022/06/24 02:35:59;;;;;;;2.80;1.90;;;18.00;99.90;;;;;;5128049;28;20051;-88
2022/06/24 02:38:25;;;;;;;3.05;1.95;;;17.90;99.90;;;;;;5127435;28;20027;-88
2022/06/24 02:40:52;;;;;;;2.88;1.88;;;17.90;99.90;;;;;;5110958;28;20043;-88
2022/06/24 02:43:20;;;;;;;5.20;2.63;;;17.90;99.90;;;;;;5127637;28;20234;-88
2022/06/24 02:45:49;;;;;;;3.58;2.10;;;17.90;99.90;;;;;;5126808;28;20130;-88
2022/06/24 02:48:16;;;;;;;3.70;1.90;;;17.90;99.90;;;;;;5127168;28;20406;-88
2022/06/24 02:50:46;;;;;;;2.90;1.92;;;17.90;99.90;;;;;;5127355;28;20039;-88
2022/06/24 02:53:14;;;;;;;4.18;2.15;;;17.90;99.90;;;;;;5127693;28;20047;-88
2022/06/24 02:55:41;;;;;;;3.33;2.17;;;17.90;99.90;;;;;;5111380;28;20039;-89
2022/06/24 02:58:07;;;;;;;10.30;2.53;;;18.00;99.90;;;;;;5128717;28;20042;-88
2022/06/24 03:00:34;;;;;;;5.22;3.65;;;18.00;99.90;;;;;;5128180;28;20050;-87
2022/06/24 03:03:00;;;;;;;3.88;2.42;;;18.00;99.90;;;;;;5109825;28;20043;-88
2022/06/24 03:05:26;;;;;;;5.30;2.45;;;18.00;99.90;;;;;;5093390;28;20102;-88
2022/06/24 03:07:54;;;;;;;3.60;2.20;;;18.00;99.90;;;;;;5121152;28;20051;-87
2022/06/24 03:10:23;;;;;;;2.72;1.90;;;18.00;99.90;;;;;;5138437;28;20046;-88
2022/06/24 03:12:50;;;;;;;2.67;2.42;;;18.00;99.90;;;;;;5136991;28;20043;-88
2022/06/24 03:15:16;;;;;;;4.15;2.50;;;18.00;99.90;;;;;;5137590;28;20516;-89
2022/06/24 03:17:42;;;;;;;3.65;2.78;;;18.00;99.90;;;;;;5118785;28;20047;-88
2022/06/24 03:20:09;;;;;;;12.27;2.97;;;18.00;99.90;;;;;;5133932;28;20092;-89
2022/06/24 03:22:35;;;;;;;4.18;2.60;;;18.00;99.90;;;;;;5116794;28;20078;-88
2022/06/24 03:25:01;;;;;;;5.45;3.17;;;18.00;99.90;;;;;;5133163;28;20047;-89
2022/06/24 03:27:27;;;;;;;5.13;2.75;;;18.00;99.90;;;;;;5133454;28;20325;-89
2022/06/24 03:29:53;;;;;;;5.18;2.30;;;18.10;99.90;;;;;;5134221;28;20039;-89
2022/06/24 03:32:19;;;;;;;3.95;2.50;;;18.10;99.90;;;;;;5120114;28;20043;-88
2022/06/24 03:34:44;;;;;;;3.70;2.47;;;18.10;99.90;;;;;;5137726;27;20070;-88
2022/06/24 03:37:10;;;;;;;4.57;2.92;;;18.10;99.90;;;;;;5142540;27;20039;-87
2022/06/24 03:39:36;;;;;;;2.80;2.10;;;18.20;99.90;;;;;;5122852;27;20125;-88
2022/06/24 03:42:03;;;;;;;3.05;2.30;;;18.20;99.90;;;;;;5122542;27;20039;-88
2022/06/24 03:44:29;;;;;;;3.30;2.35;;;18.30;99.90;;;;;;5145710;27;20031;-88
2022/06/24 03:46:55;;;;;;;4.53;2.20;;;18.40;99.90;;;;;;5146391;27;20268;-88
2022/06/24 03:49:21;;;;;;;4.22;2.17;;;18.40;99.90;;;;;;5145445;27;20058;-88
2022/06/24 03:51:47;;;;;;;3.15;2.40;;;18.50;99.90;;;;;;5141326;27;20039;-89
2022/06/24 03:54:13;;;;;;;5.20;2.30;;;18.60;99.90;;;;;;5142910;27;20039;-87
2022/06/24 03:56:39;;;;;;;4.25;2.35;;;18.60;99.90;;;;;;5140516;27;20130;-88
2022/06/24 03:59:04;;;;;;;3.55;2.40;;;18.70;99.90;;;;;;5138281;27;20043;-88
2022/06/24 04:01:30;;;;;;;6.63;2.53;;;18.70;99.90;;;;;;5139465;27;20096;-88
2022/06/24 04:03:56;;;;;;;4.72;2.53;;;18.70;99.90;;;;;;5138653;27;20095;-89
2022/06/24 04:06:22;;;;;;;4.50;2.33;;;18.70;99.90;;;;;;5134468;27;20489;-88
2022/06/24 04:08:48;;;;;;;5.47;2.42;;;18.80;99.90;;;;;;5134911;27;20118;-88
2022/06/24 04:11:18;;;;;;;6.30;2.88;;;18.70;99.90;;;;;;5137560;27;20054;-88
2022/06/24 04:13:44;;;;;;;2.97;2.30;;;18.80;99.90;;;;;;5120512;27;20134;-89
2022/06/24 04:16:11;;;;;;;3.92;2.13;;;18.80;99.90;;;;;;5136478;27;20043;-88
2022/06/24 04:18:37;;;;;;;4.28;2.28;;;18.90;99.90;;;;;;5136504;27;20046;-88
2022/06/24 04:21:10;;;;;;;3.20;2.10;;;18.90;99.90;;;;;;5136100;27;20050;-88
2022/06/24 04:23:36;;;;;;;6.53;2.20;;;19.00;99.90;;;;;;5137057;27;20050;-89
2022/06/24 04:26:03;;;;;;;3.40;2.35;;;19.40;99.90;;;;;;5138634;27;20080;-89
2022/06/24 04:28:30;;;;;;;4.20;2.15;;;19.10;99.90;;;;;;5103795;27;20039;-87
2022/06/24 04:30:56;;;;;;;3.63;2.15;;;19.20;99.90;;;;;;5136694;27;20415;-87
2022/06/24 04:33:22;;;;;;;4.80;2.55;;;19.30;99.90;;;;;;5084731;27;20150;-87
2022/06/24 04:35:48;;;;;;;4.57;2.20;;;19.30;99.90;;;;;;5101881;27;20467;-88
2022/06/24 04:38:15;;;;;;;3.75;2.00;;;19.40;99.90;;;;;;5118359;27;20039;-88
2022/06/24 04:40:49;;;;;;;9.93;2.05;;;19.60;99.90;;;;;;5120660;27;20051;-89
2022/06/24 04:43:15;;;;;;;3.03;2.10;;;19.60;99.90;;;;;;5121220;27;20039;-88
2022/06/24 04:45:44;;;;;;;5.38;1.90;;;19.70;99.90;;;;;;5120119;28;20067;-87
2022/06/24 04:48:10;;;;;;;2.83;1.92;;;19.80;99.90;;;;;;5136525;27;20055;-87
2022/06/24 04:50:36;;;;;;;2.90;1.90;;;19.80;99.90;;;;;;5117061;27;20039;-88
2022/06/24 04:53:02;;;;;;;5.38;2.20;;;19.90;99.90;;;;;;5132064;27;20066;-87
2022/06/24 04:55:27;;;;;;;4.07;2.45;;;20.00;99.90;;;;;;5132248;27;20343;-85
2022/06/24 04:57:53;;;;;;;3.67;2.40;;;20.00;99.90;;;;;;5130980;27;20084;-87
2022/06/24 05:00:19;;;;;;;5.40;2.80;;;20.10;99.90;;;;;;5131920;27;20035;-88
2022/06/24 05:02:44;;;;;;;5.07;2.67;;;20.20;99.90;;;;;;5131079;27;20087;-89
2022/06/24 05:05:13;;;;;;;2.72;2.00;;;20.20;99.90;;;;;;5132047;27;20084;-89
2022/06/24 05:07:40;;;;;;;3.58;1.70;;;20.40;99.90;;;;;;5128871;27;20055;-88
2022/06/24 05:10:07;;;;;;;6.53;2.58;;;20.50;99.90;;;;;;5130850;27;20122;-87
2022/06/24 05:12:33;;;;;;;5.47;2.40;;;20.60;99.90;;;;;;5111719;27;20039;-86
2022/06/24 05:14:59;;;;;;;3.30;2.03;;;20.70;99.90;;;;;;5129118;27;20066;-89
2022/06/24 05:17:26;;;;;;;4.18;2.33;;;20.90;99.90;;;;;;5095266;27;20066;-85
2022/06/24 05:19:52;;;;;;;3.58;2.05;;;20.90;99.90;;;;;;5112073;27;20138;-88
2022/06/24 05:22:18;;;;;;;3.92;2.80;;;20.90;99.90;;;;;;5112760;27;20078;-86
2022/06/24 05:24:44;;;;;;;4.22;2.33;;;21.00;99.90;;;;;;5093797;27;20046;-88
2022/06/24 05:27:10;;;;;;;4.55;2.05;;;21.10;99.90;;;;;;5112556;27;20039;-87
2022/06/24 05:29:36;;;;;;;4.68;2.75;;;21.10;99.90;;;;;;5129200;27;20432;-85
2022/06/24 05:32:03;;;;;;;5.43;2.05;;;21.10;99.90;;;;;;5115476;27;20064;-89
2022/06/24 05:34:28;;;;;;;6.95;2.13;;;21.10;99.90;;;;;;5100516;27;20053;-91
2022/06/24 05:36:55;;;;;;;5.65;2.20;;;21.20;99.90;;;;;;5132421;27;20039;-92
2022/06/24 05:39:21;;;;;;;3.63;1.85;;;21.30;99.90;;;;;;5116835;27;20085;-91
2022/06/24 05:41:47;;;;;;;3.80;1.83;;;21.40;99.90;;;;;;5142268;27;20048;-93
2022/06/24 05:44:13;;;;;;;5.05;2.20;;;21.50;99.90;;;;;;5141960;27;20078;-88
2022/06/24 05:46:40;;;;;;;8.18;1.92;;;21.60;99.90;;;;;;5132804;27;20047;-85
2022/06/24 05:49:06;;;;;;;3.58;2.13;;;21.60;99.90;;;;;;5129133;27;20047;-86
2022/06/24 05:51:34;;;;;;;7.82;2.08;;;21.70;99.90;;;;;;5127966;27;20204;-86
2022/06/24 05:56:45;;;;;;;9.77;3.10;;;22.00;99.90;;;;;;5134072;27;20035;-86
2022/06/24 05:59:17;;;;;;;8.13;3.72;;;22.00;99.90;;;;;;5079372;27;20055;-89
2022/06/24 06:01:42;;;;;;;6.25;3.30;;;22.10;99.90;;;;;;5094931;27;20035;-89
2022/06/24 06:04:08;;;;;;;4.57;3.72;;;22.00;99.90;;;;;;5128195;27;20049;-86
2022/06/24 06:06:36;;;;;;;5.93;4.00;;;22.00;99.90;;;;;;5110929;27;20494;-85
2022/06/24 06:09:03;;;;;;;6.25;3.72;;;21.90;99.90;;;;;;5127428;27;20062;-85
2022/06/24 06:11:28;;;;;;;8.27;4.22;;;21.80;99.90;;;;;;5110460;27;20043;-85
2022/06/24 06:13:55;;;;;;;6.95;3.80;;;21.70;99.90;;;;;;5093930;28;20363;-86
2022/06/24 06:16:22;;;;;;;8.25;3.85;;;21.60;99.90;;;;;;5109114;27;20047;-85
2022/06/24 06:18:48;;;;;;;11.43;3.85;;;21.40;99.90;;;;;;5127140;27;20564;-85
2022/06/24 06:21:15;;;;;;;7.50;3.35;;;21.30;99.90;;;;;;5127729;27;20054;-86
2022/06/24 06:23:41;;;;;;;7.53;3.53;;;21.20;99.90;;;;;;5128412;27;20122;-86
2022/06/24 06:26:08;;;;;;;9.38;5.13;;;21.10;99.90;;;;;;5110655;28;20127;-86
2022/06/24 06:28:35;;;;;;;10.75;4.97;;;21.00;99.90;;;;;;5126491;28;20506;-87
2022/06/24 06:31:01;;;;;;;11.48;4.72;;;20.80;99.90;;;;;;5110413;28;20125;-86
2022/06/24 06:33:27;;;;;;;13.45;4.65;;;20.70;99.90;;;;;;5109770;28;20039;-85
2022/06/24 06:36:07;;;;;;;9.80;3.47;;;20.60;99.90;;;;;;5128404;28;20114;-86
2022/06/24 06:38:33;;;;;;;17.77;3.60;;;20.50;99.90;;;;;;5127406;28;20043;-86
2022/06/24 06:41:00;;;;;;;6.78;3.08;;;20.50;99.90;;;;;;5128408;28;20039;-87
2022/06/24 06:43:26;;;;;;;8.43;2.97;;;20.50;99.90;;;;;;5093930;28;20058;-87
2022/06/24 06:45:52;;;;;;;9.82;3.33;;;20.40;99.90;;;;;;5093363;28;20039;-87
2022/06/24 06:48:20;;;;;;;7.50;3.25;;;20.40;99.90;;;;;;5128278;28;20065;-87
2022/06/24 06:50:45;;;;;;;10.27;3.88;;;20.40;99.90;;;;;;5109932;28;20387;-87
2022/06/24 06:53:11;;;;;;;11.65;4.80;;;20.50;99.90;;;;;;5093505;28;20038;-87
2022/06/24 06:55:37;;;;;;;12.73;6.45;;;20.40;99.90;;;;;;5109360;28;20398;-87
2022/06/24 06:58:03;;;;;;;9.05;6.85;;;20.50;99.90;;;;;;5109929;28;20050;-85
2022/06/24 07:00:28;;;;;;;18.38;8.07;;;20.50;99.90;;;;;;5127058;28;20050;-85
2022/06/24 07:02:54;;;;;;;12.75;7.07;;;20.50;99.90;;;;;;5126282;28;20047;-86
2022/06/24 07:05:20;;;;;;;12.20;7.00;;;20.50;99.90;;;;;;5127078;28;20403;-86
2022/06/24 07:07:46;;;;;;;13.05;7.05;;;20.50;99.90;;;;;;5109001;28;20043;-86
2022/06/24 07:10:12;;;;;;;12.75;7.57;;;20.60;99.90;;;;;;5112162;27;20051;-86
2022/06/24 07:12:38;;;;;;;16.63;8.30;;;20.50;99.90;;;;;;5130567;27;20035;-87
2022/06/24 07:15:04;;;;;;;12.27;6.95;;;20.50;99.90;;;;;;5133412;27;20138;-86
2022/06/24 07:17:30;;;;;;;12.00;6.43;;;20.50;99.90;;;;;;5116260;27;20046;-85
2022/06/24 07:19:56;;;;;;;12.15;6.45;;;20.40;99.90;;;;;;5115323;27;20039;-87
2022/06/24 07:22:21;;;;;;;12.80;6.45;;;20.30;99.90;;;;;;5133445;27;20060;-86
2022/06/24 07:24:47;;;;;;;11.45;6.38;;;20.20;99.90;;;;;;5098405;27;20071;-86
2022/06/24 07:27:13;;;;;;;8.38;6.22;;;20.20;99.90;;;;;;5132876;27;20062;-85
2022/06/24 07:29:39;;;;;;;11.75;6.43;;;20.10;99.90;;;;;;5081506;27;20124;-87
2022/06/24 07:32:06;;;;;;;13.98;6.25;;;19.80;99.90;;;;;;5115667;27;20039;-86
2022/06/24 07:34:33;;;;;;;16.02;5.55;;;20.10;99.90;;;;;;5115346;27;20047;-87
2022/06/24 07:37:04;;;;;;;11.82;6.25;;;20.10;99.90;;;;;;5131222;27;20127;-86
2022/06/24 07:39:30;;;;;;;9.18;5.13;;;20.10;99.90;;;;;;5133772;27;20047;-86
2022/06/24 07:41:56;;;;;;;11.02;5.68;;;20.10;99.90;;;;;;5116998;27;20506;-86
2022/06/24 07:44:22;;;;;;;13.15;5.22;;;20.20;99.90;;;;;;5116572;27;20039;-87
2022/06/24 07:46:49;;;;;;;11.57;5.40;;;20.20;99.90;;;;;;5133841;27;20059;-86
2022/06/24 07:49:15;;;;;;;10.70;4.70;;;20.20;99.90;;;;;;5134954;27;20050;-85
2022/06/24 07:51:41;;;;;;;10.60;5.22;;;20.10;99.90;;;;;;5133657;27;20096;-87
2022/06/24 07:54:10;;;;;;;11.00;5.68;;;20.20;99.90;;;;;;5115910;27;20184;-84
2022/06/24 07:59:21;;;;;;;7.57;4.68;;;20.20;99.90;;;;;;5119115;27;20096;-86
2022/06/24 08:01:47;;;;;;;9.00;4.57;;;20.30;99.90;;;;;;5118276;27;20047;-86
2022/06/24 08:04:14;;;;;;;11.38;4.22;;;20.30;99.90;;;;;;5134764;27;20043;-86
2022/06/24 08:06:46;;;;;;;6.28;3.90;;;20.40;99.90;;;;;;5117226;27;20082;-85
2022/06/24 08:09:19;;;;;;;8.45;4.40;;;20.40;99.90;;;;;;5117686;27;20074;-85
2022/06/24 08:18:11;;;;;;;8.40;3.65;;;20.50;99.90;;;;;;5015207;28;20507;-82
2022/06/24 08:20:37;;;;;;;6.38;3.83;;;20.50;99.90;;;;;;4994400;28;20392;-82
2022/06/24 08:23:03;;;;;;;9.15;3.92;;;20.50;99.90;;;;;;5013478;28;20049;-82
2022/06/24 08:25:29;;;;;;;7.03;3.13;;;20.50;99.90;;;;;;4996089;28;20488;-82
2022/06/24 08:27:55;;;;;;;6.85;3.65;;;20.50;99.90;;;;;;4980809;28;20042;-82
2022/06/24 08:30:21;;;;;;;5.18;3.35;;;20.60;99.90;;;;;;4996060;28;20521;-83
2022/06/24 08:32:47;;;;;;;5.38;2.92;;;20.70;99.90;;;;;;5012963;28;20061;-82
2022/06/24 08:35:12;;;;;;;8.55;2.72;;;20.80;99.90;;;;;;5013140;28;20042;-82
2022/06/24 08:37:38;;;;;;;5.65;2.95;;;20.80;99.90;;;;;;5012377;28;20058;-82
2022/06/24 08:40:04;;;;;;;4.45;1.98;;;20.90;99.90;;;;;;5014485;28;20112;-82
2022/06/24 08:42:31;;;;;;;6.68;2.53;;;20.90;99.90;;;;;;5012905;28;20480;-83
2022/06/24 08:44:59;;;;;;;4.55;2.33;;;20.80;99.90;;;;;;5013236;28;20050;-83
2022/06/24 08:47:25;;;;;;;7.85;2.78;;;20.80;99.90;;;;;;5013406;28;20042;-83
2022/06/24 08:49:52;;;;;;;8.27;2.83;;;20.70;99.90;;;;;;5013901;28;20046;-83
2022/06/24 08:52:19;;;;;;;8.77;3.15;;;20.70;99.90;;;;;;5013556;28;20046;-82
2022/06/24 08:54:46;;;;;;;5.15;2.60;;;20.70;99.90;;;;;;5013211;28;20129;-82
2022/06/24 08:57:12;;;;;;;9.18;3.00;;;20.80;99.90;;;;;;4997509;28;20084;-83
2022/06/24 08:59:39;;;;;;;7.90;2.70;;;20.80;99.90;;;;;;4978978;28;20070;-83
2022/06/24 09:02:04;;;;;;;6.38;3.00;;;21.00;99.90;;;;;;4980764;28;20081;-82
2022/06/24 09:04:33;;;;;;;6.85;2.70;;;21.10;99.90;;;;;;4982597;28;20049;-82
2022/06/24 09:07:01;;;;;;;8.32;2.90;;;21.10;99.90;;;;;;5016923;28;20073;-83
2022/06/24 09:09:27;;;;;;;5.68;2.13;;;21.00;99.90;;;;;;5018070;28;20057;-83
2022/06/24 09:11:57;;;;;;;6.05;3.05;;;21.00;99.90;;;;;;5017098;28;20046;-84
2022/06/24 09:14:43;;;;;;;7.20;2.53;;;20.80;99.90;;;;;;5018982;28;20513;-81
2022/06/24 09:17:11;;;;;;;3.10;2.20;;;20.80;99.90;;;;;;5017807;28;20076;-82
2022/06/24 09:19:37;;;;;;;7.03;3.08;;;20.80;99.90;;;;;;4985378;28;20112;-82
2022/06/24 09:22:03;;;;;;;7.15;2.85;;;20.80;99.90;;;;;;5000818;28;20038;-83
2022/06/24 09:24:51;;;;;;;6.00;2.33;;;20.80;99.90;;;;;;5000155;28;20065;-82
2022/06/24 09:27:20;;;;;;;11.05;2.70;;;20.80;99.90;;;;;;5015279;28;20471;-81
2022/06/24 09:29:48;;;;;;;7.10;2.80;;;20.90;99.90;;;;;;5012338;28;20493;-80
2022/06/24 09:32:14;;;;;;;4.53;2.50;;;20.90;99.90;;;;;;5014365;28;20420;-81
2022/06/24 09:35:07;;;;;;;5.50;2.85;;;21.00;99.90;;;;;;4997066;28;20045;-81
2022/06/24 09:37:43;;;;;;;6.53;2.70;;;20.90;99.90;;;;;;5011059;28;20453;-81
2022/06/24 09:40:15;;;;;;;4.53;2.15;;;20.90;99.90;;;;;;5012691;28;20132;-82
2022/06/24 09:42:40;;;;;;;6.60;2.80;;;20.80;99.90;;;;;;5009844;28;20132;-81
2022/06/24 09:45:07;;;;;;;8.25;2.60;;;20.80;99.90;;;;;;5010218;28;20069;-82
2022/06/24 09:47:39;;;;;;;6.32;2.60;;;20.70;99.90;;;;;;5010180;28;20057;-81
2022/06/24 09:50:05;;;;;;;8.20;3.30;;;20.70;99.90;;;;;;5008986;28;20099;-80
2022/06/24 09:52:31;;;;;;;7.80;2.90;;;20.70;99.90;;;;;;5010031;28;20041;-80
2022/06/24 09:55:00;;;;;;;7.70;3.03;;;20.60;99.90;;;;;;5007814;28;20081;-80
2022/06/24 09:57:26;;;;;;;8.07;3.10;;;20.60;99.90;;;;;;5009302;28;20046;-80
2022/06/24 10:02:38;;;;;;;5.82;3.00;;;20.60;99.90;;;;;;5010809;28;20081;-87
2022/06/24 10:05:07;;;;;;;4.68;2.85;;;20.50;99.90;;;;;;5015103;28;20068;-86
2022/06/24 10:07:34;;;;;;;4.70;2.67;;;20.50;99.90;;;;;;4996365;28;20629;-89
2022/06/24 10:10:07;;;;;;;6.97;3.33;;;20.50;99.90;;;;;;4998320;28;20042;-85
2022/06/24 10:12:39;;;;;;;7.53;3.77;;;20.50;99.90;;;;;;5012561;28;20425;-91
2022/06/24 10:15:06;;;;;;;4.95;2.83;;;20.50;99.90;;;;;;5012899;28;20149;-87
2022/06/24 10:17:34;;;;;;;6.72;3.10;;;20.40;99.90;;;;;;5012498;28;20136;-84
2022/06/24 10:20:02;;;;;;;5.55;2.50;;;20.40;99.90;;;;;;4992905;28;20396;-84
2022/06/24 10:22:45;;;;;;;8.73;2.75;;;20.30;99.90;;;;;;4962609;28;20128;-84
2022/06/24 10:25:17;;;;;;;3.60;2.60;;;20.30;99.90;;;;;;5008507;28;20046;-83
2022/06/24 10:27:58;;;;;;;10.80;2.75;;;20.30;99.90;;;;;;5011835;28;20113;-84
2022/06/24 10:30:45;;;;;;;5.50;2.75;;;20.20;99.90;;;;;;5010895;28;20070;-84
2022/06/24 10:33:15;;;;;;;7.85;2.78;;;20.10;99.90;;;;;;4992488;28;20088;-85
2022/06/24 10:36:03;;;;;;;5.30;2.70;;;20.00;99.90;;;;;;4995495;28;20078;-85
2022/06/24 10:38:40;;;;;;;8.45;3.65;;;19.90;99.90;;;;;;4993598;28;20062;-85
2022/06/24 10:41:11;;;;;;;11.90;3.42;;;19.90;99.90;;;;;;5011601;28;20104;-85
2022/06/24 10:43:42;;;;;;;8.75;3.92;;;20.00;99.90;;;;;;4995124;28;20054;-87
2022/06/24 10:46:11;;;;;;;7.97;3.35;;;20.10;99.90;;;;;;4981618;28;20559;-86
2022/06/24 10:48:43;;;;;;;8.98;4.07;;;19.70;99.90;;;;;;5017972;28;20042;-87
2022/06/24 10:51:16;;;;;;;11.37;3.87;;;19.70;99.90;;;;;;4998432;28;20076;-87
2022/06/24 10:54:09;;;;;;;6.68;3.47;;;19.60;99.90;;;;;;5017811;28;20056;-83
2022/06/24 10:56:37;;;;;;;7.05;3.38;;;19.60;99.90;;;;;;5015730;28;20074;-82
2022/06/24 10:59:03;;;;;;;8.18;4.22;;;19.50;99.90;;;;;;4996707;28;20061;-85
2022/06/24 11:01:29;;;;;;;4.30;3.30;;;19.40;99.90;;;;;;4998493;28;20492;-82
2022/06/24 11:03:55;;;;;;;13.93;3.33;;;19.30;99.90;;;;;;4979461;28;20072;-85
2022/06/24 11:06:21;;;;;;;6.53;3.28;;;19.30;99.90;;;;;;4997546;28;20077;-86
2022/06/24 11:08:47;;;;;;;5.78;3.70;;;19.20;99.90;;;;;;4996145;28;20084;-84
2022/06/24 11:11:25;;;;;;;4.38;3.35;;;19.10;99.90;;;;;;4979779;28;20079;-85
2022/06/24 11:13:51;;;;;;;3.88;2.58;;;19.70;99.90;;;;;;4985376;28;20054;-88
2022/06/24 11:16:18;;;;;;;5.57;2.50;;;18.90;99.90;;;;;;4981221;28;20057;-87
2022/06/24 11:18:48;;;;;;;3.35;1.80;;;18.80;99.90;;;;;;4967606;28;20050;-87
2022/06/24 11:21:17;;;;;;;3.97;1.60;;;18.70;99.90;;;;;;4997556;28;20064;-89
2022/06/24 11:23:47;;;;;;;3.10;1.25;;;18.60;99.90;;;;;;4999090;28;20038;-87
2022/06/24 11:26:18;;;;;;;2.70;1.30;;;18.50;99.90;;;;;;5013790;28;20054;-87
2022/06/24 11:28:53;;;;;;;3.25;1.40;;;18.50;99.90;;;;;;5013861;28;20564;-86
2022/06/24 11:31:27;;;;;;;5.50;1.60;;;18.40;99.90;;;;;;5016739;28;20237;-87
2022/06/24 11:33:58;;;;;;;3.53;1.30;;;18.40;99.90;;;;;;4981879;28;20510;-86
2022/06/24 11:36:26;;;;;;;2.23;1.60;;;18.40;99.90;;;;;;5018009;28;20046;-86
2022/06/24 11:38:54;;;;;;;2.45;1.50;;;18.30;99.90;;;;;;5018834;28;20054;-88
2022/06/24 11:41:28;;;;;;;3.45;2.05;;;18.30;99.90;;;;;;5019403;28;20042;-91
2022/06/24 11:43:54;;;;;;;4.10;2.50;;;18.30;99.90;;;;;;5005544;28;20045;-88
2022/06/24 11:46:22;;;;;;;3.10;2.20;;;18.30;99.90;;;;;;5020792;28;20045;-90
2022/06/24 11:49:25;;;;;;;4.32;2.17;;;18.30;99.90;;;;;;5006565;28;20101;-90
2022/06/24 11:51:51;;;;;;;3.35;2.28;;;18.30;99.90;;;;;;5005369;28;20069;-90
2022/06/24 11:54:17;;;;;;;4.05;2.17;;;18.30;99.90;;;;;;5021880;28;20694;-89
2022/06/24 11:56:43;;;;;;;5.65;2.45;;;18.40;99.90;;;;;;5019841;28;20504;-90
2022/06/24 11:59:11;;;;;;;2.83;1.98;;;18.60;99.90;;;;;;5017919;28;20507;-86
2022/06/24 12:01:38;;;;;;;2.78;1.60;;;18.40;99.90;;;;;;5019379;28;20554;-89
2022/06/24 12:04:11;;;;;;;6.07;2.15;;;18.30;99.90;;;;;;4999077;28;20045;-86
2022/06/24 12:06:39;;;;;;;3.33;1.95;;;18.50;99.90;;;;;;5013243;28;20124;-80
2022/06/24 12:09:05;;;;;;;2.53;1.73;;;18.50;99.90;;;;;;5007410;28;20049;-83
2022/06/24 12:11:37;;;;;;;4.25;1.85;;;18.60;99.90;;;;;;5010021;28;20078;-82
2022/06/24 12:14:08;;;;;;;5.07;1.48;;;18.00;99.90;;;;;;5009260;28;20053;-82
2022/06/24 12:16:54;;;;;;;2.63;1.33;;;18.70;99.90;;;;;;5008399;28;20096;-82
2022/06/24 12:19:20;;;;;;;3.08;1.40;;;18.70;99.90;;;;;;5011366;28;20096;-81
2022/06/24 12:21:45;;;;;;;2.55;1.42;;;18.70;99.90;;;;;;5008536;28;20496;-82
2022/06/24 12:24:22;;;;;;;2.80;1.50;;;18.70;99.90;;;;;;5009462;28;20046;-82
2022/06/24 12:26:51;;;;;;;2.45;1.45;;;18.70;99.90;;;;;;4991401;28;20131;-82
2022/06/24 12:29:29;;;;;;;3.63;1.70;;;18.70;99.90;;;;;;5009829;28;20392;-82
2022/06/24 12:31:55;;;;;;;3.45;1.60;;;18.70;99.90;;;;;;5010347;28;20089;-82
2022/06/24 12:34:25;;;;;;;3.58;1.50;;;18.70;99.90;;;;;;5008448;28;20038;-81
2022/06/24 12:37:00;;;;;;;4.03;1.73;;;18.70;99.90;;;;;;5009441;28;20046;-82
2022/06/24 12:39:47;;;;;;;2.22;1.42;;;18.70;99.90;;;;;;5008545;28;20500;-80
2022/06/24 12:42:17;;;;;;;3.45;1.25;;;18.80;99.90;;;;;;5008502;28;20081;-82
2022/06/24 12:44:45;;;;;;;2.25;1.45;;;18.90;99.90;;;;;;5010826;28;20077;-82
2022/06/24 12:52:47;;;;;;;5.70;2.08;;;19.30;99.90;;;;;;5010831;28;20053;-83
2022/06/24 12:55:15;;;;;;;4.45;2.47;;;19.50;99.90;;;;;;5010567;28;20046;-84
2022/06/24 12:57:42;;;;;;;4.43;2.08;;;19.50;99.90;;;;;;5009872;28;20030;-83
2022/06/24 13:00:11;;;;;;;1.77;1.52;;;19.60;99.90;;;;;;5009628;28;20058;-85
2022/06/24 13:02:45;;;;;;;3.40;1.85;;;19.80;99.90;;;;;;5011068;28;20054;-86
2022/06/24 13:05:11;;;;;;;4.65;1.67;;;20.00;99.90;;;;;;5010847;28;20435;-84
2022/06/24 13:07:37;;;;;;;4.20;1.90;;;20.20;99.90;;;;;;5013439;28;20620;-86
2022/06/24 13:10:04;;;;;;;3.05;1.65;;;20.30;99.90;;;;;;5012203;28;20049;-85
2022/06/24 13:12:31;;;;;;;4.38;1.85;;;20.60;99.90;;;;;;5012415;28;20046;-85
2022/06/24 13:14:56;;;;;;;4.45;2.05;;;20.70;99.90;;;;;;5014514;28;20064;-87